createdAt,value
2018-08-20T00:02:05.800Z,8.07
2018-08-20T00:04:39.462Z,7.50
2018-08-20T00:07:07.718Z,7.23
2018-08-20T00:09:41.257Z,9.07
2018-08-20T00:12:09.868Z,9.73
2018-08-20T00:14:38.199Z,6.53
2018-08-20T00:17:07.048Z,8.63
2018-08-20T00:19:35.534Z,7.30
2018-08-20T00:22:03.976Z,7.58
2018-08-20T00:24:32.390Z,11.10
2018-08-20T00:27:03.116Z,6.45
2018-08-20T00:29:31.908Z,7.10
2018-08-20T00:32:01.394Z,7.27
2018-08-20T00:34:31.048Z,11.97
2018-08-20T00:37:00.912Z,8.20
2018-08-20T00:39:29.948Z,8.73
2018-08-20T00:41:58.215Z,8.40
2018-08-20T00:44:26.457Z,8.70
2018-08-20T00:46:54.764Z,9.73
2018-08-20T00:49:23.003Z,12.27
2018-08-20T00:51:51.264Z,8.67
2018-08-20T00:54:19.685Z,7.72
2018-08-20T00:56:48.008Z,8.27
2018-08-20T00:59:16.331Z,10.15
2018-08-20T01:01:44.585Z,9.25
2018-08-20T01:04:12.832Z,8.33
2018-08-20T01:06:41.061Z,10.10
2018-08-20T01:09:09.725Z,9.03
2018-08-20T01:11:38.088Z,8.43
2018-08-20T01:14:06.377Z,9.83
2018-08-20T01:16:34.819Z,10.10
2018-08-20T01:19:03.548Z,9.60
2018-08-20T01:21:32.064Z,7.83
2018-08-20T01:24:00.630Z,9.05
2018-08-20T01:26:30.070Z,8.43
2018-08-20T01:28:59.419Z,7.62
2018-08-20T01:31:28.868Z,7.57
2018-08-20T01:33:59.962Z,8.37
2018-08-20T01:36:28.881Z,8.03
2018-08-20T01:38:58.021Z,9.00
2018-08-20T01:41:26.991Z,10.33
2018-08-20T01:43:55.209Z,8.93
2018-08-20T01:46:23.445Z,7.03
2018-08-20T01:48:52.641Z,8.63
2018-08-20T01:51:20.891Z,8.47
2018-08-20T01:53:49.192Z,7.87
2018-08-20T01:56:17.520Z,9.00
2018-08-20T01:58:45.894Z,9.13
2018-08-20T02:01:14.156Z,10.05
2018-08-20T02:03:42.355Z,9.05
2018-08-20T02:06:10.608Z,11.70
2018-08-20T02:08:39.069Z,8.73
2018-08-20T02:11:07.411Z,10.77
2018-08-20T02:13:35.679Z,10.00
2018-08-20T02:16:03.934Z,9.97
2018-08-20T02:18:32.665Z,8.50
2018-08-20T02:21:00.873Z,11.87
2018-08-20T02:23:29.058Z,9.43
2018-08-20T02:25:57.270Z,8.73
2018-08-20T02:28:25.469Z,10.57
2018-08-20T02:30:54.500Z,11.28
2018-08-20T02:33:22.718Z,13.77
2018-08-20T02:35:50.941Z,9.53
2018-08-20T02:38:19.316Z,11.75
2018-08-20T02:40:48.453Z,8.87
2018-08-20T02:43:16.834Z,10.07
2018-08-20T02:45:45.281Z,9.43
2018-08-20T02:48:14.785Z,8.33
2018-08-20T02:50:43.115Z,9.83
2018-08-20T02:53:11.344Z,8.57
2018-08-20T02:55:39.575Z,12.60
2018-08-20T02:58:07.798Z,9.97
2018-08-20T03:00:36.043Z,9.80
2018-08-20T03:03:04.688Z,8.95
2018-08-20T03:05:33.750Z,9.33
2018-08-20T03:08:02.005Z,9.23
2018-08-20T03:10:30.194Z,14.33
2018-08-20T03:12:58.489Z,10.60
2018-08-20T03:15:26.661Z,12.00
2018-08-20T03:17:54.880Z,11.07
2018-08-20T03:20:23.114Z,11.85
2018-08-20T03:22:51.300Z,10.57
2018-08-20T03:25:19.778Z,10.53
2018-08-20T03:27:48.255Z,10.95
2018-08-20T03:30:16.622Z,8.77
2018-08-20T03:32:45.841Z,13.05
2018-08-20T03:35:15.189Z,11.80
2018-08-20T03:37:44.647Z,11.70
2018-08-20T03:40:14.378Z,10.13
2018-08-20T03:42:43.607Z,10.57
2018-08-20T03:45:12.642Z,10.37
2018-08-20T03:47:40.919Z,13.07
2018-08-20T03:50:13.099Z,8.57
2018-08-20T03:52:41.371Z,8.97
2018-08-20T03:55:09.621Z,11.17
2018-08-20T03:57:38.347Z,12.47
2018-08-20T04:00:07.821Z,10.60
2018-08-20T04:02:36.088Z,9.30
2018-08-20T04:05:04.712Z,9.80
2018-08-20T04:07:32.870Z,11.50
2018-08-20T04:10:01.123Z,10.47
2018-08-20T04:12:29.339Z,9.40
2018-08-20T04:14:57.573Z,12.03
2018-08-20T04:17:25.825Z,11.08
2018-08-20T04:19:54.031Z,12.13
2018-08-20T04:22:22.314Z,12.00
2018-08-20T04:24:50.688Z,12.68
2018-08-20T04:27:19.141Z,12.00
2018-08-20T04:29:47.879Z,12.37
2018-08-20T04:32:16.428Z,12.40
2018-08-20T04:34:45.454Z,13.13
2018-08-20T04:37:15.049Z,11.83
2018-08-20T04:39:44.151Z,12.98
2018-08-20T04:42:13.494Z,9.43
2018-08-20T04:44:41.683Z,9.73
2018-08-20T04:47:09.947Z,13.63
2018-08-20T04:49:38.231Z,10.55
2018-08-20T04:52:06.549Z,10.27
2018-08-20T04:54:35.039Z,10.03
2018-08-20T04:57:03.776Z,13.37
2018-08-20T04:59:32.081Z,10.88
2018-08-20T05:02:00.709Z,12.00
2018-08-20T05:04:29.070Z,11.10
2018-08-20T05:07:03.600Z,11.57
2018-08-20T05:09:31.913Z,11.70
2018-08-20T05:12:00.217Z,12.20
2018-08-20T05:14:28.517Z,10.58
2018-08-20T05:16:56.766Z,12.17
2018-08-20T05:19:28.679Z,11.47
2018-08-20T05:21:56.911Z,8.93
2018-08-20T05:24:25.167Z,14.27
2018-08-20T05:26:53.873Z,10.20
2018-08-20T05:29:22.223Z,11.47
2018-08-20T05:31:50.433Z,14.60
2018-08-20T05:34:18.799Z,17.45
2018-08-20T05:36:47.260Z,14.83
2018-08-20T05:39:15.773Z,13.40
2018-08-20T05:41:45.148Z,13.57
2018-08-20T05:44:15.090Z,12.58
2018-08-20T05:46:44.595Z,11.50
2018-08-20T05:49:13.797Z,10.23
2018-08-20T05:51:42.188Z,9.27
2018-08-20T05:54:10.594Z,9.80
2018-08-20T05:56:38.801Z,9.43
2018-08-20T05:59:07.192Z,11.90
2018-08-20T06:01:36.600Z,9.50
2018-08-20T06:04:06.331Z,7.87
2018-08-20T06:06:36.133Z,8.87
2018-08-20T06:09:06.473Z,10.23
2018-08-20T06:11:34.938Z,10.23
2018-08-20T06:14:03.495Z,7.10
2018-08-20T06:16:33.387Z,8.40
2018-08-20T06:19:02.124Z,7.90
2018-08-20T06:21:30.669Z,7.55
2018-08-20T06:23:59.057Z,8.80
2018-08-20T06:26:27.438Z,9.05
2018-08-20T06:28:55.963Z,7.57
2018-08-20T06:31:24.326Z,6.35
2018-08-20T06:33:52.580Z,6.47
2018-08-20T06:36:21.138Z,6.78
2018-08-20T06:38:49.564Z,7.30
2018-08-20T06:41:18.076Z,7.05
2018-08-20T06:43:49.581Z,7.00
2018-08-20T06:46:20.684Z,7.90
2018-08-20T06:48:49.350Z,8.77
2018-08-20T06:51:18.243Z,7.65
2018-08-20T06:53:47.581Z,8.90
2018-08-20T06:56:17.253Z,8.03
2018-08-20T06:58:46.184Z,9.60
2018-08-20T07:01:18.873Z,6.80
2018-08-20T07:03:48.706Z,6.97
2018-08-20T07:06:20.119Z,9.20
2018-08-20T07:08:48.503Z,8.63
2018-08-20T07:11:17.330Z,7.65
2018-08-20T07:13:48.675Z,7.90
2018-08-20T07:16:17.134Z,7.40
2018-08-20T07:18:45.512Z,7.10
2018-08-20T07:21:14.446Z,6.57
2018-08-20T07:23:43.219Z,7.53
2018-08-20T07:26:11.517Z,8.93
2018-08-20T07:28:40.016Z,7.83
2018-08-20T07:31:08.247Z,7.90
2018-08-20T07:33:36.498Z,8.40
2018-08-20T07:36:04.788Z,9.28
2018-08-20T07:38:33.109Z,8.17
2018-08-20T07:41:01.323Z,7.47
2018-08-20T07:43:29.543Z,8.25
2018-08-20T07:45:57.801Z,6.97
2018-08-20T07:48:26.047Z,7.50
2018-08-20T07:50:54.386Z,8.80
2018-08-20T07:53:22.497Z,8.10
2018-08-20T07:55:50.740Z,10.23
2018-08-20T07:58:19.019Z,10.13
2018-08-20T08:00:47.450Z,8.17
2018-08-20T08:03:20.021Z,7.70
2018-08-20T08:05:48.422Z,9.80
2018-08-20T08:08:16.819Z,8.28
2018-08-20T08:10:45.215Z,6.73
2018-08-20T08:13:14.146Z,8.50
2018-08-20T08:15:43.501Z,8.77
2018-08-20T08:18:12.102Z,8.60
2018-08-20T08:20:40.300Z,8.65
2018-08-20T08:23:08.516Z,8.37
2018-08-20T08:25:36.743Z,8.67
2018-08-20T08:28:05.192Z,7.10
2018-08-20T08:30:34.121Z,8.43
2018-08-20T08:33:02.427Z,7.50
2018-08-20T08:35:30.637Z,10.90
2018-08-20T08:37:58.830Z,7.47
2018-08-20T08:40:27.072Z,6.80
2018-08-20T08:42:55.286Z,10.33
2018-08-20T08:45:23.513Z,7.55
2018-08-20T08:47:51.689Z,8.43
2018-08-20T08:50:19.941Z,8.80
2018-08-20T08:52:48.171Z,10.00
2018-08-20T08:55:17.110Z,10.20
2018-08-20T08:57:45.567Z,6.93
2018-08-20T09:00:19.325Z,8.08
2018-08-20T09:02:47.653Z,9.70
2018-08-20T09:05:16.109Z,6.80
2018-08-20T09:07:45.786Z,10.13
2018-08-20T09:10:14.814Z,11.48
2018-08-20T09:12:44.184Z,6.92
2018-08-20T09:15:16.604Z,11.27
2018-08-20T09:17:45.090Z,9.47
2018-08-20T09:20:15.552Z,8.28
2018-08-20T09:22:45.170Z,6.93
2018-08-20T09:25:14.980Z,7.10
2018-08-20T09:27:44.584Z,6.67
2018-08-20T09:30:16.535Z,6.73
2018-08-20T09:32:46.457Z,7.87
2018-08-20T09:35:20.723Z,9.97
2018-08-20T09:37:48.999Z,8.27
2018-08-20T09:40:17.386Z,7.83
2018-08-20T09:42:45.756Z,7.50
2018-08-20T09:45:14.986Z,6.77
2018-08-20T09:47:43.624Z,5.93
2018-08-20T09:50:15.987Z,5.03
2018-08-20T09:52:45.443Z,5.97
2018-08-20T09:55:14.458Z,7.27
2018-08-20T09:57:43.664Z,5.53
2018-08-20T10:00:19.708Z,6.10
2018-08-20T10:02:48.237Z,6.53
2018-08-20T10:05:17.132Z,6.60
2018-08-20T10:07:46.158Z,5.55
2018-08-20T10:10:16.182Z,9.05
2018-08-20T10:12:46.065Z,7.87
2018-08-20T10:15:15.438Z,7.33
2018-08-20T10:17:44.942Z,8.97
2018-08-20T10:20:14.350Z,8.67
2018-08-20T10:22:43.070Z,8.20
2018-08-20T10:25:11.300Z,8.15
2018-08-20T10:27:39.605Z,7.50
2018-08-20T10:30:09.383Z,6.55
2018-08-20T10:32:37.671Z,6.80
2018-08-20T10:35:06.272Z,6.93
2018-08-20T10:37:35.121Z,8.63
2018-08-20T10:40:03.342Z,6.67
2018-08-20T10:42:32.857Z,7.60
2018-08-20T10:45:06.382Z,6.17
2018-08-20T10:47:34.679Z,7.37
2018-08-20T10:50:03.112Z,6.80
2018-08-20T10:52:31.419Z,8.23
2018-08-20T10:54:59.836Z,4.50
2018-08-20T10:57:28.125Z,4.80
2018-08-20T10:59:56.396Z,5.30
2018-08-20T11:02:24.823Z,5.20
2018-08-20T11:04:54.762Z,5.33
2018-08-20T11:07:23.609Z,6.10
2018-08-20T11:09:51.842Z,5.43
2018-08-20T11:12:20.156Z,5.97
2018-08-20T11:14:48.615Z,5.65
2018-08-20T11:17:22.748Z,5.13
2018-08-20T11:19:51.201Z,4.33
2018-08-20T11:22:21.245Z,7.47
2018-08-20T11:24:51.124Z,5.27
2018-08-20T11:27:21.698Z,6.87
2018-08-20T11:29:50.075Z,4.17
2018-08-20T11:32:18.737Z,6.60
2018-08-20T11:34:47.993Z,4.30
2018-08-20T11:37:18.939Z,4.53
2018-08-20T11:39:50.215Z,3.73
2018-08-20T11:42:18.819Z,4.93
2018-08-20T11:44:47.894Z,4.70
2018-08-20T11:47:16.993Z,4.97
2018-08-20T11:49:45.898Z,5.43
2018-08-20T11:52:16.613Z,3.63
2018-08-20T11:54:45.403Z,3.93
2018-08-20T11:57:14.540Z,4.70
2018-08-20T11:59:44.395Z,5.40
2018-08-20T12:02:14.265Z,4.77
2018-08-20T12:04:43.555Z,3.87
2018-08-20T12:07:12.936Z,4.97
2018-08-20T12:09:42.668Z,4.23
2018-08-20T12:12:11.034Z,4.17
2018-08-20T12:14:39.450Z,5.65
2018-08-20T12:17:08.164Z,4.13
2018-08-20T12:19:36.429Z,4.42
2018-08-20T12:22:04.688Z,3.93
2018-08-20T12:24:33.328Z,4.93
2018-08-20T12:27:01.605Z,3.90
2018-08-20T12:29:29.892Z,3.47
2018-08-20T12:31:58.152Z,3.63
2018-08-20T12:34:26.420Z,2.97
2018-08-20T12:36:54.754Z,3.80
2018-08-20T12:39:23.009Z,4.53
2018-08-20T12:41:51.886Z,3.53
2018-08-20T12:44:20.791Z,3.50
2018-08-20T12:46:50.026Z,3.40
2018-08-20T12:49:18.353Z,5.00
2018-08-20T12:51:46.778Z,3.20
2018-08-20T12:54:15.075Z,3.08
2018-08-20T12:56:43.670Z,3.43
2018-08-20T12:59:12.279Z,4.10
2018-08-20T13:01:40.717Z,3.85
2018-08-20T13:04:09.037Z,4.43
2018-08-20T13:06:37.293Z,4.07
2018-08-20T13:09:07.014Z,3.87
2018-08-20T13:11:36.283Z,3.20
2018-08-20T13:14:05.091Z,3.00
2018-08-20T13:16:33.770Z,3.27
2018-08-20T13:19:01.955Z,3.17
2018-08-20T13:21:30.349Z,2.97
2018-08-20T13:23:58.600Z,4.53
2018-08-20T13:26:26.785Z,3.00
2018-08-20T13:28:54.985Z,3.40
2018-08-20T13:31:23.218Z,2.63
2018-08-20T13:33:51.524Z,2.80
2018-08-20T13:36:19.998Z,2.30
2018-08-20T13:38:49.248Z,2.27
2018-08-20T13:41:17.980Z,2.77
2018-08-20T13:43:48.087Z,4.40
2018-08-20T13:46:17.728Z,3.70
2018-08-20T13:48:47.437Z,2.67
2018-08-20T13:51:16.540Z,3.00
2018-08-20T13:53:46.910Z,2.70
2018-08-20T13:56:15.461Z,3.00
2018-08-20T13:58:47.577Z,3.42
2018-08-20T14:01:16.719Z,2.27
2018-08-20T14:03:44.994Z,3.17
2018-08-20T14:06:14.441Z,2.40
2018-08-20T14:08:44.122Z,2.30
2018-08-20T14:11:13.049Z,2.80
2018-08-20T14:13:46.523Z,3.00
2018-08-20T14:16:15.453Z,3.30
2018-08-20T14:18:45.423Z,4.10
2018-08-20T14:21:15.620Z,3.83
2018-08-20T14:23:46.460Z,2.83
2018-08-20T14:26:16.920Z,2.80
2018-08-20T14:28:45.412Z,3.37
2018-08-20T14:31:22.177Z,3.65
2018-08-20T14:33:50.410Z,3.23
2018-08-20T14:36:18.865Z,4.10
2018-08-20T14:38:47.275Z,3.72
2018-08-20T14:41:15.633Z,3.90
2018-08-20T14:43:45.058Z,3.10
2018-08-20T14:46:18.697Z,3.37
2018-08-20T14:48:47.110Z,3.20
2018-08-20T14:51:15.475Z,4.40
2018-08-20T14:53:45.159Z,3.10
2018-08-20T14:56:14.909Z,3.10
2018-08-20T14:58:44.703Z,3.30
2018-08-20T15:01:13.065Z,4.37
2018-08-20T15:03:41.367Z,3.58
2018-08-20T15:06:09.811Z,3.43
2018-08-20T15:08:39.413Z,3.03
2018-08-20T15:11:07.655Z,4.37
2018-08-20T15:13:36.096Z,2.80
2018-08-20T15:16:04.546Z,5.43
2018-08-20T15:18:32.792Z,5.77
2018-08-20T15:21:01.016Z,3.47
2018-08-20T15:23:29.287Z,3.70
2018-08-20T15:25:57.580Z,6.67
2018-08-20T15:28:25.812Z,6.17
2018-08-20T15:30:55.201Z,3.20
2018-08-20T15:33:23.445Z,5.40
2018-08-20T15:35:51.685Z,3.63
2018-08-20T15:38:23.696Z,3.90
2018-08-20T15:40:51.963Z,4.90
2018-08-20T15:43:20.199Z,4.10
2018-08-20T15:48:22.353Z,3.70
2018-08-20T15:50:50.768Z,3.10
2018-08-20T15:53:19.145Z,3.23
2018-08-20T15:55:47.475Z,3.22
2018-08-20T15:58:15.846Z,4.67
2018-08-20T16:00:45.670Z,4.28
2018-08-20T16:03:14.566Z,3.23
2018-08-20T16:05:43.732Z,3.13
2018-08-20T16:08:12.061Z,2.30
2018-08-20T16:10:40.381Z,2.73
2018-08-20T16:13:08.710Z,4.90
2018-08-20T16:15:36.916Z,2.53
2018-08-20T16:18:05.323Z,3.23
2018-08-20T16:20:33.689Z,3.30
2018-08-20T16:23:01.926Z,2.80
2018-08-20T16:25:30.183Z,2.30
2018-08-20T16:27:58.443Z,4.67
2018-08-20T16:30:26.701Z,2.42
2018-08-20T16:32:54.897Z,3.07
2018-08-20T16:35:23.219Z,2.50
2018-08-20T16:37:51.512Z,2.12
2018-08-20T16:40:19.851Z,3.77
2018-08-20T16:42:48.182Z,1.90
2018-08-20T16:45:16.791Z,3.40
2018-08-20T16:47:45.353Z,4.00
2018-08-20T16:50:14.689Z,2.47
2018-08-20T16:52:43.635Z,4.40
2018-08-20T16:55:12.720Z,2.00
2018-08-20T16:57:41.075Z,2.67
2018-08-20T17:00:11.059Z,1.90
2018-08-20T17:02:40.060Z,2.23
2018-08-20T17:05:09.615Z,3.17
2018-08-20T17:07:38.224Z,2.53
2018-08-20T17:10:07.897Z,1.70
2018-08-20T17:12:36.673Z,4.27
2018-08-20T17:15:09.283Z,5.33
2018-08-20T17:17:37.805Z,3.50
2018-08-20T17:20:07.324Z,2.55
2018-08-20T17:22:35.702Z,2.47
2018-08-20T17:25:04.540Z,2.80
2018-08-20T17:27:33.070Z,2.30
2018-08-20T17:30:01.782Z,2.37
2018-08-20T17:32:30.676Z,2.17
2018-08-20T17:34:59.198Z,2.50
2018-08-20T17:37:27.458Z,2.53
2018-08-20T17:40:00.792Z,4.67
2018-08-20T17:42:30.069Z,3.57
2018-08-20T17:44:59.013Z,2.00
2018-08-20T17:47:27.847Z,1.93
2018-08-20T17:49:57.079Z,1.70
2018-08-20T17:52:29.764Z,1.83
2018-08-20T17:55:00.208Z,3.50
2018-08-20T17:57:28.622Z,1.40
2018-08-20T18:00:40.438Z,2.27
2018-08-20T18:03:14.514Z,2.47
2018-08-20T18:05:44.371Z,2.40
2018-08-20T18:08:13.572Z,2.30
2018-08-20T18:10:42.469Z,4.33
2018-08-20T18:13:10.855Z,2.03
2018-08-20T18:16:12.275Z,1.77
2018-08-20T18:18:42.741Z,2.67
2018-08-20T18:21:10.970Z,2.87
2018-08-20T18:23:39.276Z,1.90
2018-08-20T18:26:07.832Z,1.95
2018-08-20T18:28:44.081Z,1.73
2018-08-20T18:31:20.058Z,1.87
2018-08-20T18:33:48.431Z,2.23
2018-08-20T18:36:22.043Z,2.25
2018-08-20T18:38:55.020Z,3.27
2018-08-20T18:42:02.545Z,1.47
2018-08-20T18:44:30.880Z,1.87
2018-08-20T18:46:59.430Z,3.47
2018-08-20T18:49:27.735Z,1.50
2018-08-20T18:52:09.485Z,2.43
2018-08-20T18:54:40.271Z,1.57
2018-08-20T18:57:08.635Z,2.00
2018-08-20T18:59:38.092Z,2.40
2018-08-20T19:02:07.498Z,2.23
2018-08-20T19:04:41.355Z,2.47
2018-08-20T19:07:11.724Z,4.43
2018-08-20T19:09:40.829Z,2.83
2018-08-20T19:12:09.465Z,3.20
2018-08-20T19:14:40.418Z,1.62
2018-08-20T19:17:14.869Z,3.07
2018-08-20T19:19:47.572Z,1.50
2018-08-20T19:22:21.638Z,2.90
2018-08-20T19:24:50.115Z,2.97
2018-08-20T19:27:18.593Z,1.98
2018-08-20T19:29:47.123Z,2.87
2018-08-20T19:32:15.667Z,3.33
2018-08-20T19:34:44.683Z,2.47
2018-08-20T19:37:13.475Z,2.47
2018-08-20T19:39:41.761Z,2.60
2018-08-20T19:42:14.363Z,2.17
2018-08-20T19:44:43.522Z,3.53
2018-08-20T19:47:13.506Z,2.53
2018-08-20T19:49:43.129Z,2.63
2018-08-20T19:52:11.424Z,3.33
2018-08-20T19:54:39.683Z,2.37
2018-08-20T19:57:07.961Z,1.92
2018-08-20T19:59:37.064Z,2.90
2018-08-20T20:02:07.599Z,3.07
2018-08-20T20:04:35.874Z,3.20
2018-08-20T20:07:04.224Z,3.07
2018-08-20T20:09:34.914Z,3.15
2018-08-20T20:12:03.171Z,4.57
2018-08-20T20:14:35.613Z,1.63
2018-08-20T20:17:05.092Z,2.67
2018-08-20T20:19:33.322Z,2.17
2018-08-20T20:22:01.506Z,2.27
2018-08-20T20:24:29.656Z,3.27
2018-08-20T20:26:57.823Z,4.07
2018-08-20T20:29:25.975Z,3.20
2018-08-20T20:31:54.154Z,1.67
2018-08-20T20:34:22.402Z,4.13
2018-08-20T20:36:50.600Z,3.20
2018-08-20T20:39:18.756Z,1.92
2018-08-20T20:41:46.932Z,4.13
2018-08-20T20:44:15.129Z,3.70
2018-08-20T20:46:43.274Z,2.83
2018-08-20T20:49:11.404Z,3.37
2018-08-20T20:51:39.556Z,2.03
2018-08-20T20:54:08.035Z,2.55
2018-08-20T20:56:36.190Z,2.73
2018-08-20T20:59:04.366Z,4.50
2018-08-20T21:01:32.544Z,2.77
2018-08-20T21:04:03.010Z,2.80
2018-08-20T21:06:31.143Z,2.27
2018-08-20T21:08:59.913Z,3.13
2018-08-20T21:11:28.062Z,5.93
2018-08-20T21:13:56.212Z,3.47
2018-08-20T21:16:25.200Z,2.73
2018-08-20T21:18:54.507Z,2.20
2018-08-20T21:21:23.036Z,2.03
2018-08-20T21:23:51.236Z,2.05
2018-08-20T21:26:19.607Z,4.00
2018-08-20T21:28:51.616Z,2.37
2018-08-20T21:31:21.092Z,2.63
2018-08-20T21:33:59.607Z,3.80
2018-08-20T21:36:27.825Z,2.00
2018-08-20T21:38:56.014Z,2.40
2018-08-20T21:41:25.549Z,2.95
2018-08-20T21:43:54.148Z,1.90
2018-08-20T21:46:22.364Z,2.22
2018-08-20T21:48:50.580Z,3.47
2018-08-20T21:51:24.489Z,3.33
2018-08-20T21:53:52.664Z,2.70
2018-08-20T21:56:20.821Z,2.43
2018-08-20T21:58:49.006Z,2.35
2018-08-20T22:01:17.706Z,3.07
2018-08-20T22:03:46.187Z,4.05
2018-08-20T22:06:14.763Z,3.17
2018-08-20T22:08:42.984Z,4.80
2018-08-20T22:11:11.668Z,3.53
2018-08-20T22:13:39.903Z,2.33
2018-08-20T22:16:17.906Z,3.30
2018-08-20T22:18:47.629Z,2.80
2018-08-20T22:21:17.918Z,3.03
2018-08-20T22:23:46.736Z,2.47
2018-08-20T22:26:18.277Z,3.53
2018-08-20T22:28:48.707Z,3.33
2018-08-20T22:31:16.997Z,2.57
2018-08-20T22:33:55.334Z,2.80
2018-08-20T22:36:23.680Z,2.13
2018-08-20T22:38:53.065Z,3.70
2018-08-20T22:41:22.258Z,3.60
2018-08-20T22:43:50.551Z,3.73
2018-08-20T22:46:19.547Z,4.87
2018-08-20T22:48:51.180Z,2.72
2018-08-20T22:51:19.973Z,3.20
2018-08-20T22:53:50.498Z,2.63
2018-08-20T22:56:24.046Z,3.33
2018-08-20T22:58:52.781Z,2.73
2018-08-20T23:01:21.560Z,2.62
2018-08-20T23:03:49.744Z,3.87
2018-08-20T23:06:17.941Z,2.90
2018-08-20T23:08:46.111Z,4.00
2018-08-20T23:11:14.343Z,2.83
2018-08-20T23:13:42.502Z,3.00
2018-08-20T23:16:10.687Z,3.60
2018-08-20T23:18:38.851Z,4.77
2018-08-20T23:21:07.052Z,4.90
2018-08-20T23:23:37.111Z,3.00
2018-08-20T23:26:06.603Z,2.67
2018-08-20T23:28:36.168Z,2.97
2018-08-20T23:31:04.360Z,4.10
2018-08-20T23:33:33.656Z,3.03
2018-08-20T23:36:01.844Z,4.28
2018-08-20T23:38:30.267Z,4.37
2018-08-20T23:40:59.316Z,5.95
2018-08-20T23:43:27.919Z,4.67
2018-08-20T23:45:56.633Z,2.92
2018-08-20T23:48:25.068Z,7.28
2018-08-20T23:50:58.801Z,2.73
2018-08-20T23:53:27.961Z,3.10
2018-08-20T23:56:06.008Z,3.87
2018-08-20T23:58:34.221Z,4.37
